EmailTwitter


Observations de surface / Québec / CYUL (71627)

Régions: Québec | Canada | États-Unis | Europe | France | UK | Ailleurs
Station
Affichage
Infos & localisation pour CYUL (71627) | Aide pour décoder les METARs

Observations prises le 2019-04-19 à 18H00 UTC à MONTREAL INTL A, QB (CYUL)

Etat du ciel: couvert.

Obstacle(s) à la visibilité: faible pluie.

Température: 8.0 Celsius

Point de rosée: 7.0 Celsius

Humidité relative: 93%

Facteur vent: 4.

Facteur vent (rafales): 3.

Vents: Nord-est à 24 km/h ou 13 noeuds.

Rafale du vent: 37 km/h ou 20 noeuds.

Pression au niveau moyen de la mer: 100.58 kilopascals.

Calage altimétrique: 100.58 kilopascals ou 29.70 pouces de mercure.

Visibilité horizontale: 15.00 milles terrestres ou 24.00 kilomètres.

Hauteur du plafond: 244 mètres ( 800 pieds ).

Observation METAR:

CYUL 191800Z 03013G20KT 15SM -RA BKN008 BKN012 OVC018 08/07 A2970 RMK SF5SF2SC1

SLP058=